MSC Ans — H3MH — position and weather

sailwx.info

Track history (hours):
 
Tides and Currents Weather Stations Pressure Air Temp Water Temp Dewpoint Dewpoint Depression Visibility Wind Speed Wind Dir Waves Ship Positions

MSC Ans

Last reported at 2018-Jun-21 18:19 UTC. Time now 2018-Jun-23 17:23 UTC.
Position N 37°08' W 011°36'.

Length 294 m; draft 10 m.

Type: Ship (hazmat cat A). MMSI: 353873000.

Date/timePositionNaut miles runAvg speedWind from/ knotsBaromVisibWave heightAir tempDewpointWater temp
2018-Jun-21 18:19N 37°08' W 011°36'619.8
2018-Jun-21 18:00N 37°05' W 011°29'48418.3
2018-Jun-20 15:37N 37°01' W 001°23'620.3
2018-Jun-20 15:18N 37°04' W 001°17'620.3
2018-Jun-20 15:00N 37°08' W 001°10'1020.1
2018-Jun-20 14:28N 37°15' W 001°01'1020.7
2018-Jun-20 13:59N 37°22' W 000°51'1020.8
2018-Jun-20 13:30N 37°29' W 000°42'1120.6
2018-Jun-20 12:59N 37°37' W 000°33'1020.7
2018-Jun-20 12:30N 37°45' W 000°26'1320.5
2018-Jun-20 11:51N 37°56' W 000°17'720.7
2018-Jun-20 11:30N 38°02' W 000°12'2120.5
2018-Jun-20 10:28N 38°20' E 000°03'1120.3
2018-Jun-20 09:55N 38°30' E 000°10'1020.4
2018-Jun-20 09:26N 38°38' E 000°18'920.4
2018-Jun-20 09:00N 38°45' E 000°24'5218.0
2018-Jun-20 06:07N 39°25' W 000°17'1 9.0
2018-Jun-20 06:00N 39°26' W 000°18'1 0.9
2018-Jun-20 04:52N 39°26' W 000°20'0 0.0
2018-Jun-20 04:25N 39°26' W 000°20'0 0.0
2018-Jun-20 03:55N 39°26' W 000°20'0 0.0
2018-Jun-20 03:25N 39°26' W 000°20'0 0.0
2018-Jun-20 02:58N 39°26' W 000°20'0 0.0
2018-Jun-20 02:28N 39°26' W 000°20'0 0.0
2018-Jun-20 01:55N 39°26' W 000°20'0 0.0
2018-Jun-20 00:37N 39°26' W 000°20'0 0.0
2018-Jun-20 00:19N 39°26' W 000°20'0 0.0
2018-Jun-19 22:07N 39°26' W 000°20'0 0.0
2018-Jun-19 19:58N 39°26' W 000°20'0 0.0
2018-Jun-19 19:25N 39°26' W 000°20'0 0.0
2018-Jun-19 18:55N 39°26' W 000°20'0 0.0
2018-Jun-19 16:43N 39°26' W 000°20'0 0.0
2018-Jun-19 16:28N 39°26' W 000°20'0 0.0
2018-Jun-19 15:52N 39°26' W 000°20'0 0.0
2018-Jun-19 15:19N 39°26' W 000°20'0 0.0
2018-Jun-19 14:55N 39°26' W 000°20'0 0.0
2018-Jun-19 12:40N 39°26' W 000°20'0 0.0
2018-Jun-19 12:22N 39°26' W 000°20'0 0.0
2018-Jun-19 07:58N 39°26' W 000°20'0 0.0
2018-Jun-19 07:22N 39°26' W 000°20'0 0.0
2018-Jun-19 05:37N 39°26' W 000°20'0 0.0
2018-Jun-19 05:25N 39°26' W 000°20'0 0.0
2018-Jun-19 05:00N 39°26' W 000°20'0 0.0
2018-Jun-19 04:25N 39°26' W 000°20'0 0.0
2018-Jun-19 04:00N 39°26' W 000°20'24 6.6
2018-Jun-19 00:21N 39°27' E 000°11'616.4
2018-Jun-19 00:00N 39°28' E 000°18'1416.0
2018-Jun-18 23:08N 39°35' E 000°34'916.1
2018-Jun-18 22:35N 39°40' E 000°43'116.2
2018-Jun-18 22:30N 39°41' E 000°44'1016.4
2018-Jun-18 21:55N 39°47' E 000°54'2917.0
2018-Jun-18 20:11N 40°04' E 001°25'317.0
2018-Jun-18 20:00N 40°06' E 001°29'917.1
2018-Jun-18 19:30N 40°11' E 001°38'917.1
2018-Jun-18 19:00N 40°16' E 001°47'916.9
2018-Jun-18 18:27N 40°22' E 001°57'1116.9
2018-Jun-18 17:48N 40°28' E 002°08'517.0
2018-Jun-18 17:30N 40°31' E 002°14'1016.7
2018-Jun-18 16:55N 40°37' E 002°24'2318.4
2018-Jun-18 15:39N 40°51' E 002°49'318.6
2018-Jun-18 15:30N 40°53' E 002°52'918.7
2018-Jun-18 15:00N 40°59' E 003°01'918.8
2018-Jun-18 14:31N 41°04' E 003°11'918.5
2018-Jun-18 14:00N 41°10' E 003°21'12719.3
2018-Jun-18 07:27N 42°27' E 005°35'1020.4
2018-Jun-18 06:58N 42°33' E 005°46'1020.2
2018-Jun-18 06:29N 42°39' E 005°56'1720.0
2018-Jun-18 05:39N 42°49' E 006°15'320.3
2018-Jun-18 05:30N 42°50' E 006°18'1120.3
2018-Jun-18 04:58N 42°56' E 006°31'1020.5
2018-Jun-18 04:29N 43°02' E 006°42'1020.5
2018-Jun-18 04:00N 43°08' E 006°53'1020.5
2018-Jun-18 03:30N 43°14' E 007°04'1020.3
2018-Jun-18 03:00N 43°20' E 007°15'1020.1
2018-Jun-18 02:30N 43°26' E 007°26'1020.4
2018-Jun-18 02:00N 43°32' E 007°38'1120.3
2018-Jun-18 01:29N 43°38' E 007°50'1020.5
2018-Jun-18 01:00N 43°44' E 008°00'1020.3
2018-Jun-18 00:30N 43°51' E 008°11'1020.2
2018-Jun-18 00:00N 43°59' E 008°20'1019.9
2018-Jun-17 23:30N 44°07' E 008°28'1019.1
2018-Jun-17 23:00N 44°15' E 008°35'916.9
2018-Jun-17 22:30N 44°22' E 008°42'5 9.5
2018-Jun-17 22:00N 44°25' E 008°46'1 1.7
2018-Jun-17 21:29N 44°25' E 008°48'0 0.0
2018-Jun-17 20:59N 44°25' E 008°48'0 0.0
2018-Jun-17 20:29N 44°25' E 008°48'0 0.0
2018-Jun-17 19:56N 44°25' E 008°48'0 0.0
2018-Jun-17 19:29N 44°25' E 008°48'0 0.0
2018-Jun-17 18:59N 44°25' E 008°48'0 0.0
2018-Jun-17 18:29N 44°25' E 008°48'0 0.0
2018-Jun-17 17:59N 44°25' E 008°48'0 0.0
2018-Jun-17 17:29N 44°25' E 008°48'0 0.0
2018-Jun-17 16:59N 44°25' E 008°48'0 0.0
2018-Jun-17 16:29N 44°25' E 008°48'0 0.0
2018-Jun-17 15:59N 44°25' E 008°48'0 0.0
2018-Jun-17 15:29N 44°25' E 008°48'0 0.0
2018-Jun-17 14:59N 44°25' E 008°48'0 0.0
2018-Jun-17 14:29N 44°25' E 008°48'0 0.0
2018-Jun-17 13:59N 44°25' E 008°48'0 0.0
2018-Jun-17 13:26N 44°25' E 008°48'0 0.0
2018-Jun-17 12:59N 44°25' E 008°48'0 0.0
2018-Jun-17 12:29N 44°25' E 008°48'0 0.0
2018-Jun-17 11:59N 44°25' E 008°48'0 0.0
2018-Jun-17 11:29N 44°25' E 008°48'0 0.0
2018-Jun-17 10:59N 44°25' E 008°48'0 0.0
2018-Jun-17 10:29N 44°25' E 008°48'0 0.0
2018-Jun-17 09:59N 44°25' E 008°48'0 0.0
2018-Jun-17 09:29N 44°25' E 008°48'0 0.0
2018-Jun-17 08:59N 44°25' E 008°48'0 0.0
2018-Jun-17 08:29N 44°25' E 008°48'0 0.0
2018-Jun-17 07:59N 44°25' E 008°48'0 0.0
2018-Jun-17 07:29N 44°25' E 008°48'0 0.0
2018-Jun-17 06:59N 44°25' E 008°48'0 0.0
2018-Jun-17 06:29N 44°25' E 008°48'0 0.0
2018-Jun-17 05:59N 44°25' E 008°48'0 0.0
2018-Jun-17 05:29N 44°25' E 008°48'0 0.0
2018-Jun-17 04:59N 44°25' E 008°48'0 0.0
2018-Jun-17 04:29N 44°25' E 008°48'0 0.0
2018-Jun-17 03:59N 44°25' E 008°48'0 0.0
2018-Jun-17 03:29N 44°25' E 008°48'0 0.0
2018-Jun-17 02:59N 44°25' E 008°48'0 0.0
2018-Jun-17 02:29N 44°25' E 008°48'0 0.0
2018-Jun-17 01:59N 44°25' E 008°48'0 0.0
2018-Jun-17 01:29N 44°25' E 008°48'0 0.0
2018-Jun-17 00:59N 44°25' E 008°48'0 0.0
2018-Jun-17 00:29N 44°25' E 008°48'0 0.0
2018-Jun-16 23:59N 44°25' E 008°48'0 0.0
2018-Jun-16 23:29N 44°25' E 008°48'0 0.0
2018-Jun-16 22:59N 44°25' E 008°48'0 0.0
2018-Jun-16 22:29N 44°25' E 008°48'0 0.0
2018-Jun-16 21:59N 44°25' E 008°48'0 0.0
2018-Jun-16 21:29N 44°25' E 008°48'0 0.0
2018-Jun-16 20:59N 44°25' E 008°48'0 0.0
2018-Jun-16 20:29N 44°25' E 008°48'0 0.0
2018-Jun-16 19:59N 44°25' E 008°48'0 0.0
2018-Jun-16 19:29N 44°25' E 008°48'0 0.0
2018-Jun-16 18:59N 44°25' E 008°48'0 0.0
2018-Jun-16 18:29N 44°25' E 008°48'0 0.0
2018-Jun-16 17:59N 44°25' E 008°48'0 0.0
2018-Jun-16 17:29N 44°25' E 008°48'0 0.0
2018-Jun-16 16:59N 44°25' E 008°48'0 0.0
2018-Jun-16 16:29N 44°25' E 008°48'0 0.0
2018-Jun-16 15:59N 44°25' E 008°48'0 0.3
2018-Jun-16 15:31N 44°25' E 008°47'2 4.9
2018-Jun-16 15:01N 44°24' E 008°45'2 4.3
2018-Jun-16 14:31N 44°22' E 008°44'0 1.0
2018-Jun-16 14:01N 44°21' E 008°44'3 6.0
2018-Jun-16 13:30N 44°18' E 008°44'5 9.9
2018-Jun-16 13:01N 44°14' E 008°47'611.1
2018-Jun-16 12:30N 44°09' E 008°50'3 5.7
2018-Jun-16 12:00N 44°06' E 008°52'0 0.4
2018-Jun-16 11:30N 44°06' E 008°52'0 0.4
2018-Jun-16 11:01N 44°06' E 008°52'0 0.4
2018-Jun-16 10:31N 44°06' E 008°52'0 0.4
2018-Jun-16 10:01N 44°06' E 008°52'0 0.3
2018-Jun-16 09:31N 44°06' E 008°52'0 0.3
2018-Jun-16 09:00N 44°06' E 008°52'0 0.3
2018-Jun-16 08:30N 44°06' E 008°53'0 0.4
2018-Jun-16 08:01N 44°06' E 008°53'0 0.3
2018-Jun-16 07:31N 44°06' E 008°53'0 0.3
2018-Jun-16 07:00N 44°06' E 008°53'0 0.3
2018-Jun-16 06:30N 44°06' E 008°53'0 0.3
2018-Jun-16 06:00N 44°06' E 008°53'0 0.4
2018-Jun-16 05:30N 44°07' E 008°53'0 0.3
2018-Jun-16 05:00N 44°07' E 008°53'0 0.3
2018-Jun-16 04:31N 44°07' E 008°53'0 0.3
2018-Jun-16 04:01N 44°07' E 008°53'0 0.3
2018-Jun-16 03:29N 44°07' E 008°53'0 0.3
2018-Jun-16 03:01N 44°07' E 008°53'0 0.3
2018-Jun-16 02:30N 44°07' E 008°52'0 0.2
2018-Jun-16 02:01N 44°07' E 008°52'0 0.1
2018-Jun-16 01:31N 44°07' E 008°52'0 0.1
2018-Jun-16 01:00N 44°07' E 008°52'0 0.1
2018-Jun-16 00:31N 44°07' E 008°53'0 0.2
2018-Jun-16 00:00N 44°07' E 008°53'0 0.2
2018-Jun-15 23:31N 44°07' E 008°53'0 0.1
2018-Jun-15 23:01N 44°07' E 008°53'0 0.1
2018-Jun-15 22:31N 44°07' E 008°53'0 0.2
2018-Jun-15 22:01N 44°07' E 008°53'0 0.2
2018-Jun-15 21:31N 44°07' E 008°53'0 0.2
2018-Jun-15 21:00N 44°07' E 008°53'0 0.2
2018-Jun-15 20:31N 44°07' E 008°53'0 0.2
2018-Jun-15 20:01N 44°07' E 008°53'0 0.2
2018-Jun-15 19:31N 44°07' E 008°53'0 0.2
2018-Jun-15 19:01N 44°07' E 008°54'0 0.2
2018-Jun-15 18:30N 44°07' E 008°54'0 0.2
2018-Jun-15 18:01N 44°07' E 008°54'0 0.2
2018-Jun-15 17:30N 44°07' E 008°54'0 0.1
2018-Jun-15 17:01N 44°07' E 008°54'0 0.1
2018-Jun-15 16:31N 44°07' E 008°54'0 0.2
2018-Jun-15 16:00N 44°07' E 008°54'0 0.3
2018-Jun-15 15:30N 44°08' E 008°54'0 0.3
2018-Jun-15 15:00N 44°08' E 008°54'0 0.3
2018-Jun-15 14:31N 44°08' E 008°54'0 0.2
2018-Jun-15 14:01N 44°08' E 008°54'0 0.3
2018-Jun-15 13:31N 44°08' E 008°54'0 0.2
2018-Jun-15 13:00N 44°08' E 008°54'0 0.1
2018-Jun-15 12:31N 44°08' E 008°54'0 0.0
2018-Jun-15 12:01N 44°08' E 008°54'0 0.2
2018-Jun-15 11:30N 44°08' E 008°54'0 0.4
2018-Jun-15 11:00N 44°09' E 008°54'0 0.4
2018-Jun-15 10:30N 44°09' E 008°54'0 0.3
2018-Jun-15 10:00N 44°09' E 008°53'0 0.3
2018-Jun-15 09:31N 44°09' E 008°53'0 0.2
2018-Jun-15 09:00N 44°09' E 008°53'0 0.2
2018-Jun-15 08:31N 44°09' E 008°53'0 0.2
2018-Jun-15 08:01N 44°09' E 008°53'0 0.2
2018-Jun-15 07:29N 44°09' E 008°53'0 0.2
2018-Jun-15 07:01N 44°09' E 008°53'0 0.1
2018-Jun-15 06:31N 44°09' E 008°53'0 0.1
2018-Jun-15 06:00N 44°09' E 008°53'0 0.1
2018-Jun-15 05:30N 44°09' E 008°53'0 0.1
2018-Jun-15 05:00N 44°09' E 008°53'0 0.3
2018-Jun-15 04:31N 44°09' E 008°53'0 0.2
2018-Jun-15 04:01N 44°09' E 008°53'0 0.3
2018-Jun-15 03:31N 44°09' E 008°53'0 0.4
2018-Jun-15 03:01N 44°09' E 008°53'0 0.6
2018-Jun-15 02:31N 44°09' E 008°54'0 0.5
2018-Jun-15 02:01N 44°09' E 008°54'0 0.5
2018-Jun-15 01:30N 44°08' E 008°54'0 0.4
2018-Jun-15 01:01N 44°08' E 008°54'0 0.3
2018-Jun-15 00:31N 44°08' E 008°55'0 0.4
2018-Jun-15 00:01N 44°08' E 008°55'0 0.4
2018-Jun-14 23:31N 44°08' E 008°55'0 0.4
2018-Jun-14 23:01N 44°09' E 008°55'0 0.5
2018-Jun-14 22:30N 44°09' E 008°56'0 0.5
2018-Jun-14 22:00N 44°09' E 008°56'0 0.4
2018-Jun-14 21:30N 44°09' E 008°56'0 0.3
2018-Jun-14 21:00N 44°09' E 008°56'0 0.1
2018-Jun-14 20:30N 44°09' E 008°56'0 0.8
2018-Jun-14 20:00N 44°09' E 008°56'2 4.7
2018-Jun-14 19:30N 44°07' E 008°58'611.4
2018-Jun-14 19:00N 44°02' E 009°03'612.8
2018-Jun-14 18:30N 43°57' E 009°08'713.1
2018-Jun-14 18:00N 43°52' E 009°13'713.4
2018-Jun-14 17:30N 43°46' E 009°19'713.3
2018-Jun-14 17:00N 43°41' E 009°24'713.3
2018-Jun-14 16:30N 43°38' E 009°32'713.6
2018-Jun-14 16:00N 43°35' E 009°41'713.5
2018-Jun-14 15:30N 43°32' E 009°49'713.2
2018-Jun-14 15:00N 43°30' E 009°58'613.1
2018-Jun-14 14:30N 43°30' E 010°07'510.3
2018-Jun-14 14:00N 43°31' E 010°14'3 6.8
2018-Jun-14 13:30N 43°33' E 010°18'1 2.6
2018-Jun-14 12:58N 43°35' E 010°18'0 0.0
2018-Jun-14 12:28N 43°35' E 010°18'0 0.0
2018-Jun-14 11:58N 43°35' E 010°18'0 0.0
2018-Jun-14 11:28N 43°35' E 010°18'0 0.0
2018-Jun-14 10:58N 43°35' E 010°18'0 0.0
2018-Jun-14 10:28N 43°35' E 010°18'0 0.0
2018-Jun-14 09:58N 43°35' E 010°18'0 0.0
2018-Jun-14 09:28N 43°35' E 010°18'0 0.0
2018-Jun-14 08:58N 43°35' E 010°18'0 0.0
2018-Jun-14 08:28N 43°35' E 010°18'0 0.0
2018-Jun-14 07:58N 43°35' E 010°18'0 0.0
2018-Jun-14 07:28N 43°35' E 010°18'0 0.0
2018-Jun-14 06:58N 43°35' E 010°18'0 0.0
2018-Jun-14 06:28N 43°35' E 010°18'0 0.0
2018-Jun-14 05:58N 43°35' E 010°18'0 0.0
2018-Jun-14 05:28N 43°35' E 010°18'0 0.0
2018-Jun-14 04:58N 43°35' E 010°18'0 0.0
2018-Jun-14 04:28N 43°35' E 010°18'0 0.0
2018-Jun-14 03:58N 43°35' E 010°18'0 0.0
2018-Jun-14 03:28N 43°35' E 010°18'0 0.0
2018-Jun-14 02:58N 43°35' E 010°18'0 0.0
2018-Jun-14 02:28N 43°35' E 010°18'0 0.0
2018-Jun-14 01:58N 43°35' E 010°18'0 0.0
2018-Jun-14 01:25N 43°35' E 010°18'0 0.0
2018-Jun-14 00:58N 43°35' E 010°18'0 0.0
2018-Jun-14 00:28N 43°35' E 010°18'0 0.0
2018-Jun-13 23:55N 43°35' E 010°18'0 0.0
2018-Jun-13 23:28N 43°35' E 010°18'0 0.0
2018-Jun-13 22:58N 43°35' E 010°18'0 0.0
2018-Jun-13 22:28N 43°35' E 010°18'0 0.0
2018-Jun-13 21:58N 43°35' E 010°18'0 0.0
2018-Jun-13 21:28N 43°35' E 010°18'0 0.0
2018-Jun-13 20:58N 43°35' E 010°18'0 0.0
2018-Jun-13 20:28N 43°35' E 010°18'0 0.0
2018-Jun-13 19:58N 43°35' E 010°18'0 0.0
2018-Jun-13 19:28N 43°35' E 010°18'0 0.0
2018-Jun-13 18:58N 43°35' E 010°18'0 0.0
2018-Jun-13 18:28N 43°35' E 010°18'0 0.0
2018-Jun-13 17:58N 43°35' E 010°18'0 0.0
2018-Jun-13 17:28N 43°35' E 010°18'0 0.0
2018-Jun-13 16:58N 43°35' E 010°18'0 0.0
2018-Jun-13 16:28N 43°35' E 010°18'0 0.0
2018-Jun-13 15:58N 43°35' E 010°18'0 0.4
2018-Jun-13 15:30N 43°34' E 010°18'2 4.0
2018-Jun-13 15:01N 43°32' E 010°17'4 8.2
2018-Jun-13 14:30N 43°30' E 010°13'4 8.7
2018-Jun-13 14:00N 43°27' E 010°09'4 7.5
2018-Jun-13 13:30N 43°24' E 010°05'5 9.9
2018-Jun-13 13:00N 43°21' E 009°60'917.4
2018-Jun-13 12:30N 43°15' E 009°51'1019.9
2018-Jun-13 12:00N 43°08' E 009°41'1020.2
2018-Jun-13 11:30N 42°58' E 009°39'2220.6
2018-Jun-13 10:26N 42°37' E 009°47'1120.7
2018-Jun-13 09:55N 42°27' E 009°51'36419.8
2018-Jun-12 15:34N 38°28' E 015°52'2 8.2
2018-Jun-12 15:22N 38°27' E 015°54'1 0.5
2018-Jun-12 13:23N 38°27' E 015°54'0 0.0
2018-Jun-12 12:53N 38°27' E 015°54'0 0.0
2018-Jun-12 11:47N 38°27' E 015°54'0 0.0
2018-Jun-12 11:23N 38°27' E 015°54'0 0.0
2018-Jun-12 10:59N 38°27' E 015°54'0 0.0
2018-Jun-12 10:29N 38°27' E 015°54'0 0.0
2018-Jun-12 09:47N 38°27' E 015°54'0 0.0
2018-Jun-12 09:29N 38°27' E 015°54'0 0.0
2018-Jun-12 08:59N 38°27' E 015°54'0 0.0
2018-Jun-12 08:29N 38°27' E 015°54'0 0.0
2018-Jun-12 07:53N 38°27' E 015°54'0 0.0
2018-Jun-12 07:29N 38°27' E 015°54'0 0.0
2018-Jun-12 06:59N 38°27' E 015°54'0 0.0
2018-Jun-12 06:23N 38°27' E 015°54'0 0.0
2018-Jun-12 05:35N 38°27' E 015°54'0 0.0
2018-Jun-12 04:11N 38°27' E 015°54'0 0.0
2018-Jun-12 02:05N 38°27' E 015°54'0 0.0
2018-Jun-12 01:59N 38°27' E 015°54'0 0.0
2018-Jun-12 01:11N 38°27' E 015°54'0 0.0
2018-Jun-12 00:59N 38°27' E 015°54'0 0.0
2018-Jun-12 00:29N 38°27' E 015°54'0 0.0
2018-Jun-11 23:59N 38°27' E 015°54'0 0.0
2018-Jun-11 23:23N 38°27' E 015°54'0 0.0
2018-Jun-11 22:59N 38°27' E 015°54'0 0.0
2018-Jun-11 22:29N 38°27' E 015°54'0 0.0
2018-Jun-11 21:58N 38°27' E 015°54'0 0.0
2018-Jun-11 21:29N 38°27' E 015°54'0 0.0
2018-Jun-11 20:59N 38°27' E 015°54'0 0.0
2018-Jun-11 20:28N 38°27' E 015°54'0 0.0
2018-Jun-11 19:53N 38°27' E 015°54'0 0.0
2018-Jun-11 19:29N 38°27' E 015°54'0 0.0
2018-Jun-11 18:58N 38°27' E 015°54'0 0.0
2018-Jun-11 18:29N 38°27' E 015°54'  
Track history (hours):
 
Tides and Currents Weather Stations Pressure Air Temp Water Temp Dewpoint Dewpoint Depression Visibility Wind Speed Wind Dir Waves Ship Positions

MSC Ans

Last reported at 2018-Jun-21 18:19 UTC. Time now 2018-Jun-23 17:23 UTC.
Position N 37°08' W 011°36'.

Length 294 m; draft 10 m.

Type: Ship (hazmat cat A). MMSI: 353873000.

Date/timePositionNaut miles runAvg speedWind from/ knotsBaromVisibWave heightAir tempDewpointWater temp
2018-Jun-21 18:19N 37°08' W 011°36'619.8
2018-Jun-21 18:00N 37°05' W 011°29'48418.3
2018-Jun-20 15:37N 37°01' W 001°23'620.3
2018-Jun-20 15:18N 37°04' W 001°17'620.3
2018-Jun-20 15:00N 37°08' W 001°10'1020.1
2018-Jun-20 14:28N 37°15' W 001°01'1020.7
2018-Jun-20 13:59N 37°22' W 000°51'1020.8
2018-Jun-20 13:30N 37°29' W 000°42'1120.6
2018-Jun-20 12:59N 37°37' W 000°33'1020.7
2018-Jun-20 12:30N 37°45' W 000°26'1320.5
2018-Jun-20 11:51N 37°56' W 000°17'720.7
2018-Jun-20 11:30N 38°02' W 000°12'2120.5
2018-Jun-20 10:28N 38°20' E 000°03'1120.3
2018-Jun-20 09:55N 38°30' E 000°10'1020.4
2018-Jun-20 09:26N 38°38' E 000°18'920.4
2018-Jun-20 09:00N 38°45' E 000°24'5218.0
2018-Jun-20 06:07N 39°25' W 000°17'1 9.0
2018-Jun-20 06:00N 39°26' W 000°18'1 0.9
2018-Jun-20 04:52N 39°26' W 000°20'0 0.0
2018-Jun-20 04:25N 39°26' W 000°20'0 0.0
2018-Jun-20 03:55N 39°26' W 000°20'0 0.0
2018-Jun-20 03:25N 39°26' W 000°20'0 0.0
2018-Jun-20 02:58N 39°26' W 000°20'0 0.0
2018-Jun-20 02:28N 39°26' W 000°20'0 0.0
2018-Jun-20 01:55N 39°26' W 000°20'0 0.0
2018-Jun-20 00:37N 39°26' W 000°20'0 0.0
2018-Jun-20 00:19N 39°26' W 000°20'0 0.0
2018-Jun-19 22:07N 39°26' W 000°20'0 0.0
2018-Jun-19 19:58N 39°26' W 000°20'0 0.0
2018-Jun-19 19:25N 39°26' W 000°20'0 0.0
2018-Jun-19 18:55N 39°26' W 000°20'0 0.0
2018-Jun-19 16:43N 39°26' W 000°20'0 0.0
2018-Jun-19 16:28N 39°26' W 000°20'0 0.0
2018-Jun-19 15:52N 39°26' W 000°20'0 0.0
2018-Jun-19 15:19N 39°26' W 000°20'0 0.0
2018-Jun-19 14:55N 39°26' W 000°20'0 0.0
2018-Jun-19 12:40N 39°26' W 000°20'0 0.0
2018-Jun-19 12:22N 39°26' W 000°20'0 0.0
2018-Jun-19 07:58N 39°26' W 000°20'0 0.0
2018-Jun-19 07:22N 39°26' W 000°20'0 0.0
2018-Jun-19 05:37N 39°26' W 000°20'0 0.0
2018-Jun-19 05:25N 39°26' W 000°20'0 0.0
2018-Jun-19 05:00N 39°26' W 000°20'0 0.0
2018-Jun-19 04:25N 39°26' W 000°20'0 0.0
2018-Jun-19 04:00N 39°26' W 000°20'24 6.6
2018-Jun-19 00:21N 39°27' E 000°11'616.4
2018-Jun-19 00:00N 39°28' E 000°18'1416.0
2018-Jun-18 23:08N 39°35' E 000°34'916.1
2018-Jun-18 22:35N 39°40' E 000°43'116.2
2018-Jun-18 22:30N 39°41' E 000°44'1016.4
2018-Jun-18 21:55N 39°47' E 000°54'2917.0
2018-Jun-18 20:11N 40°04' E 001°25'317.0
2018-Jun-18 20:00N 40°06' E 001°29'917.1
2018-Jun-18 19:30N 40°11' E 001°38'917.1
2018-Jun-18 19:00N 40°16' E 001°47'916.9
2018-Jun-18 18:27N 40°22' E 001°57'1116.9
2018-Jun-18 17:48N 40°28' E 002°08'517.0
2018-Jun-18 17:30N 40°31' E 002°14'1016.7
2018-Jun-18 16:55N 40°37' E 002°24'2318.4
2018-Jun-18 15:39N 40°51' E 002°49'318.6
2018-Jun-18 15:30N 40°53' E 002°52'918.7
2018-Jun-18 15:00N 40°59' E 003°01'918.8
2018-Jun-18 14:31N 41°04' E 003°11'918.5
2018-Jun-18 14:00N 41°10' E 003°21'12719.3
2018-Jun-18 07:27N 42°27' E 005°35'1020.4
2018-Jun-18 06:58N 42°33' E 005°46'1020.2
2018-Jun-18 06:29N 42°39' E 005°56'1720.0
2018-Jun-18 05:39N 42°49' E 006°15'320.3
2018-Jun-18 05:30N 42°50' E 006°18'1120.3
2018-Jun-18 04:58N 42°56' E 006°31'1020.5
2018-Jun-18 04:29N 43°02' E 006°42'1020.5
2018-Jun-18 04:00N 43°08' E 006°53'1020.5
2018-Jun-18 03:30N 43°14' E 007°04'1020.3
2018-Jun-18 03:00N 43°20' E 007°15'1020.1
2018-Jun-18 02:30N 43°26' E 007°26'1020.4
2018-Jun-18 02:00N 43°32' E 007°38'1120.3
2018-Jun-18 01:29N 43°38' E 007°50'1020.5
2018-Jun-18 01:00N 43°44' E 008°00'1020.3
2018-Jun-18 00:30N 43°51' E 008°11'1020.2
2018-Jun-18 00:00N 43°59' E 008°20'1019.9
2018-Jun-17 23:30N 44°07' E 008°28'1019.1
2018-Jun-17 23:00N 44°15' E 008°35'916.9
2018-Jun-17 22:30N 44°22' E 008°42'5 9.5
2018-Jun-17 22:00N 44°25' E 008°46'1 1.7
2018-Jun-17 21:29N 44°25' E 008°48'0 0.0
2018-Jun-17 20:59N 44°25' E 008°48'0 0.0
2018-Jun-17 20:29N 44°25' E 008°48'0 0.0
2018-Jun-17 19:56N 44°25' E 008°48'0 0.0
2018-Jun-17 19:29N 44°25' E 008°48'0 0.0
2018-Jun-17 18:59N 44°25' E 008°48'0 0.0
2018-Jun-17 18:29N 44°25' E 008°48'0 0.0
2018-Jun-17 17:59N 44°25' E 008°48'0 0.0
2018-Jun-17 17:29N 44°25' E 008°48'0 0.0
2018-Jun-17 16:59N 44°25' E 008°48'0 0.0
2018-Jun-17 16:29N 44°25' E 008°48'0 0.0
2018-Jun-17 15:59N 44°25' E 008°48'0 0.0
2018-Jun-17 15:29N 44°25' E 008°48'0 0.0
2018-Jun-17 14:59N 44°25' E 008°48'0 0.0
2018-Jun-17 14:29N 44°25' E 008°48'0 0.0
2018-Jun-17 13:59N 44°25' E 008°48'0 0.0
2018-Jun-17 13:26N 44°25' E 008°48'0 0.0
2018-Jun-17 12:59N 44°25' E 008°48'0 0.0
2018-Jun-17 12:29N 44°25' E 008°48'0 0.0
2018-Jun-17 11:59N 44°25' E 008°48'0 0.0
2018-Jun-17 11:29N 44°25' E 008°48'0 0.0
2018-Jun-17 10:59N 44°25' E 008°48'0 0.0
2018-Jun-17 10:29N 44°25' E 008°48'0 0.0
2018-Jun-17 09:59N 44°25' E 008°48'0 0.0
2018-Jun-17 09:29N 44°25' E 008°48'0 0.0
2018-Jun-17 08:59N 44°25' E 008°48'0 0.0
2018-Jun-17 08:29N 44°25' E 008°48'0 0.0
2018-Jun-17 07:59N 44°25' E 008°48'0 0.0
2018-Jun-17 07:29N 44°25' E 008°48'0 0.0
2018-Jun-17 06:59N 44°25' E 008°48'0 0.0
2018-Jun-17 06:29N 44°25' E 008°48'0 0.0
2018-Jun-17 05:59N 44°25' E 008°48'0 0.0
2018-Jun-17 05:29N 44°25' E 008°48'0 0.0
2018-Jun-17 04:59N 44°25' E 008°48'0 0.0
2018-Jun-17 04:29N 44°25' E 008°48'0 0.0
2018-Jun-17 03:59N 44°25' E 008°48'0 0.0
2018-Jun-17 03:29N 44°25' E 008°48'0 0.0
2018-Jun-17 02:59N 44°25' E 008°48'0 0.0
2018-Jun-17 02:29N 44°25' E 008°48'0 0.0
2018-Jun-17 01:59N 44°25' E 008°48'0 0.0
2018-Jun-17 01:29N 44°25' E 008°48'0 0.0
2018-Jun-17 00:59N 44°25' E 008°48'0 0.0
2018-Jun-17 00:29N 44°25' E 008°48'0 0.0
2018-Jun-16 23:59N 44°25' E 008°48'0 0.0
2018-Jun-16 23:29N 44°25' E 008°48'0 0.0
2018-Jun-16 22:59N 44°25' E 008°48'0 0.0
2018-Jun-16 22:29N 44°25' E 008°48'0 0.0
2018-Jun-16 21:59N 44°25' E 008°48'0 0.0
2018-Jun-16 21:29N 44°25' E 008°48'0 0.0
2018-Jun-16 20:59N 44°25' E 008°48'0 0.0
2018-Jun-16 20:29N 44°25' E 008°48'0 0.0
2018-Jun-16 19:59N 44°25' E 008°48'0 0.0
2018-Jun-16 19:29N 44°25' E 008°48'0 0.0
2018-Jun-16 18:59N 44°25' E 008°48'0 0.0
2018-Jun-16 18:29N 44°25' E 008°48'0 0.0
2018-Jun-16 17:59N 44°25' E 008°48'0 0.0
2018-Jun-16 17:29N 44°25' E 008°48'0 0.0
2018-Jun-16 16:59N 44°25' E 008°48'0 0.0
2018-Jun-16 16:29N 44°25' E 008°48'0 0.0
2018-Jun-16 15:59N 44°25' E 008°48'0 0.3
2018-Jun-16 15:31N 44°25' E 008°47'2 4.9
2018-Jun-16 15:01N 44°24' E 008°45'2 4.3
2018-Jun-16 14:31N 44°22' E 008°44'0 1.0
2018-Jun-16 14:01N 44°21' E 008°44'3 6.0
2018-Jun-16 13:30N 44°18' E 008°44'5 9.9
2018-Jun-16 13:01N 44°14' E 008°47'611.1
2018-Jun-16 12:30N 44°09' E 008°50'3 5.7
2018-Jun-16 12:00N 44°06' E 008°52'0 0.4
2018-Jun-16 11:30N 44°06' E 008°52'0 0.4
2018-Jun-16 11:01N 44°06' E 008°52'0 0.4
2018-Jun-16 10:31N 44°06' E 008°52'0 0.4
2018-Jun-16 10:01N 44°06' E 008°52'0 0.3
2018-Jun-16 09:31N 44°06' E 008°52'0 0.3
2018-Jun-16 09:00N 44°06' E 008°52'0 0.3
2018-Jun-16 08:30N 44°06' E 008°53'0 0.4
2018-Jun-16 08:01N 44°06' E 008°53'0 0.3
2018-Jun-16 07:31N 44°06' E 008°53'0 0.3
2018-Jun-16 07:00N 44°06' E 008°53'0 0.3
2018-Jun-16 06:30N 44°06' E 008°53'0 0.3
2018-Jun-16 06:00N 44°06' E 008°53'0 0.4
2018-Jun-16 05:30N 44°07' E 008°53'0 0.3
2018-Jun-16 05:00N 44°07' E 008°53'0 0.3
2018-Jun-16 04:31N 44°07' E 008°53'0 0.3
2018-Jun-16 04:01N 44°07' E 008°53'0 0.3
2018-Jun-16 03:29N 44°07' E 008°53'0 0.3
2018-Jun-16 03:01N 44°07' E 008°53'0 0.3
2018-Jun-16 02:30N 44°07' E 008°52'0 0.2
2018-Jun-16 02:01N 44°07' E 008°52'0 0.1
2018-Jun-16 01:31N 44°07' E 008°52'0 0.1
2018-Jun-16 01:00N 44°07' E 008°52'0 0.1
2018-Jun-16 00:31N 44°07' E 008°53'0 0.2
2018-Jun-16 00:00N 44°07' E 008°53'0 0.2
2018-Jun-15 23:31N 44°07' E 008°53'0 0.1
2018-Jun-15 23:01N 44°07' E 008°53'0 0.1
2018-Jun-15 22:31N 44°07' E 008°53'0 0.2
2018-Jun-15 22:01N 44°07' E 008°53'0 0.2
2018-Jun-15 21:31N 44°07' E 008°53'0 0.2
2018-Jun-15 21:00N 44°07' E 008°53'0 0.2
2018-Jun-15 20:31N 44°07' E 008°53'0 0.2
2018-Jun-15 20:01N 44°07' E 008°53'0 0.2
2018-Jun-15 19:31N 44°07' E 008°53'0 0.2
2018-Jun-15 19:01N 44°07' E 008°54'0 0.2
2018-Jun-15 18:30N 44°07' E 008°54'0 0.2
2018-Jun-15 18:01N 44°07' E 008°54'0 0.2
2018-Jun-15 17:30N 44°07' E 008°54'0 0.1
2018-Jun-15 17:01N 44°07' E 008°54'0 0.1
2018-Jun-15 16:31N 44°07' E 008°54'0 0.2
2018-Jun-15 16:00N 44°07' E 008°54'0 0.3
2018-Jun-15 15:30N 44°08' E 008°54'0 0.3
2018-Jun-15 15:00N 44°08' E 008°54'0 0.3
2018-Jun-15 14:31N 44°08' E 008°54'0 0.2
2018-Jun-15 14:01N 44°08' E 008°54'0 0.3
2018-Jun-15 13:31N 44°08' E 008°54'0 0.2
2018-Jun-15 13:00N 44°08' E 008°54'0 0.1
2018-Jun-15 12:31N 44°08' E 008°54'0 0.0
2018-Jun-15 12:01N 44°08' E 008°54'0 0.2
2018-Jun-15 11:30N 44°08' E 008°54'0 0.4
2018-Jun-15 11:00N 44°09' E 008°54'0 0.4
2018-Jun-15 10:30N 44°09' E 008°54'0 0.3
2018-Jun-15 10:00N 44°09' E 008°53'0 0.3
2018-Jun-15 09:31N 44°09' E 008°53'0 0.2
2018-Jun-15 09:00N 44°09' E 008°53'0 0.2
2018-Jun-15 08:31N 44°09' E 008°53'0 0.2
2018-Jun-15 08:01N 44°09' E 008°53'0 0.2
2018-Jun-15 07:29N 44°09' E 008°53'0 0.2
2018-Jun-15 07:01N 44°09' E 008°53'0 0.1
2018-Jun-15 06:31N 44°09' E 008°53'0 0.1
2018-Jun-15 06:00N 44°09' E 008°53'0 0.1
2018-Jun-15 05:30N 44°09' E 008°53'0 0.1
2018-Jun-15 05:00N 44°09' E 008°53'0 0.3
2018-Jun-15 04:31N 44°09' E 008°53'0 0.2
2018-Jun-15 04:01N 44°09' E 008°53'0 0.3
2018-Jun-15 03:31N 44°09' E 008°53'0 0.4
2018-Jun-15 03:01N 44°09' E 008°53'0 0.6
2018-Jun-15 02:31N 44°09' E 008°54'0 0.5
2018-Jun-15 02:01N 44°09' E 008°54'0 0.5
2018-Jun-15 01:30N 44°08' E 008°54'0 0.4
2018-Jun-15 01:01N 44°08' E 008°54'0 0.3
2018-Jun-15 00:31N 44°08' E 008°55'0 0.4
2018-Jun-15 00:01N 44°08' E 008°55'0 0.4
2018-Jun-14 23:31N 44°08' E 008°55'0 0.4
2018-Jun-14 23:01N 44°09' E 008°55'0 0.5
2018-Jun-14 22:30N 44°09' E 008°56'0 0.5
2018-Jun-14 22:00N 44°09' E 008°56'0 0.4
2018-Jun-14 21:30N 44°09' E 008°56'0 0.3
2018-Jun-14 21:00N 44°09' E 008°56'0 0.1
2018-Jun-14 20:30N 44°09' E 008°56'0 0.8
2018-Jun-14 20:00N 44°09' E 008°56'2 4.7
2018-Jun-14 19:30N 44°07' E 008°58'611.4
2018-Jun-14 19:00N 44°02' E 009°03'612.8
2018-Jun-14 18:30N 43°57' E 009°08'713.1
2018-Jun-14 18:00N 43°52' E 009°13'713.4
2018-Jun-14 17:30N 43°46' E 009°19'713.3
2018-Jun-14 17:00N 43°41' E 009°24'713.3
2018-Jun-14 16:30N 43°38' E 009°32'713.6
2018-Jun-14 16:00N 43°35' E 009°41'713.5
2018-Jun-14 15:30N 43°32' E 009°49'713.2
2018-Jun-14 15:00N 43°30' E 009°58'613.1
2018-Jun-14 14:30N 43°30' E 010°07'510.3
2018-Jun-14 14:00N 43°31' E 010°14'3 6.8
2018-Jun-14 13:30N 43°33' E 010°18'1 2.6
2018-Jun-14 12:58N 43°35' E 010°18'0 0.0
2018-Jun-14 12:28N 43°35' E 010°18'0 0.0
2018-Jun-14 11:58N 43°35' E 010°18'0 0.0
2018-Jun-14 11:28N 43°35' E 010°18'0 0.0
2018-Jun-14 10:58N 43°35' E 010°18'0 0.0
2018-Jun-14 10:28N 43°35' E 010°18'0 0.0
2018-Jun-14 09:58N 43°35' E 010°18'0 0.0
2018-Jun-14 09:28N 43°35' E 010°18'0 0.0
2018-Jun-14 08:58N 43°35' E 010°18'0 0.0
2018-Jun-14 08:28N 43°35' E 010°18'0 0.0
2018-Jun-14 07:58N 43°35' E 010°18'0 0.0
2018-Jun-14 07:28N 43°35' E 010°18'0 0.0
2018-Jun-14 06:58N 43°35' E 010°18'0 0.0
2018-Jun-14 06:28N 43°35' E 010°18'0 0.0
2018-Jun-14 05:58N 43°35' E 010°18'0 0.0
2018-Jun-14 05:28N 43°35' E 010°18'0 0.0
2018-Jun-14 04:58N 43°35' E 010°18'0 0.0
2018-Jun-14 04:28N 43°35' E 010°18'0 0.0
2018-Jun-14 03:58N 43°35' E 010°18'0 0.0
2018-Jun-14 03:28N 43°35' E 010°18'0 0.0
2018-Jun-14 02:58N 43°35' E 010°18'0 0.0
2018-Jun-14 02:28N 43°35' E 010°18'0 0.0
2018-Jun-14 01:58N 43°35' E 010°18'0 0.0
2018-Jun-14 01:25N 43°35' E 010°18'0 0.0
2018-Jun-14 00:58N 43°35' E 010°18'0 0.0
2018-Jun-14 00:28N 43°35' E 010°18'0 0.0
2018-Jun-13 23:55N 43°35' E 010°18'0 0.0
2018-Jun-13 23:28N 43°35' E 010°18'0 0.0
2018-Jun-13 22:58N 43°35' E 010°18'0 0.0
2018-Jun-13 22:28N 43°35' E 010°18'0 0.0
2018-Jun-13 21:58N 43°35' E 010°18'0 0.0
2018-Jun-13 21:28N 43°35' E 010°18'0 0.0
2018-Jun-13 20:58N 43°35' E 010°18'0 0.0
2018-Jun-13 20:28N 43°35' E 010°18'0 0.0
2018-Jun-13 19:58N 43°35' E 010°18'0 0.0
2018-Jun-13 19:28N 43°35' E 010°18'0 0.0
2018-Jun-13 18:58N 43°35' E 010°18'0 0.0
2018-Jun-13 18:28N 43°35' E 010°18'0 0.0
2018-Jun-13 17:58N 43°35' E 010°18'0 0.0
2018-Jun-13 17:28N 43°35' E 010°18'0 0.0
2018-Jun-13 16:58N 43°35' E 010°18'0 0.0
2018-Jun-13 16:28N 43°35' E 010°18'0 0.0
2018-Jun-13 15:58N 43°35' E 010°18'0 0.4
2018-Jun-13 15:30N 43°34' E 010°18'2 4.0
2018-Jun-13 15:01N 43°32' E 010°17'4 8.2
2018-Jun-13 14:30N 43°30' E 010°13'4 8.7
2018-Jun-13 14:00N 43°27' E 010°09'4 7.5
2018-Jun-13 13:30N 43°24' E 010°05'5 9.9
2018-Jun-13 13:00N 43°21' E 009°60'917.4
2018-Jun-13 12:30N 43°15' E 009°51'1019.9
2018-Jun-13 12:00N 43°08' E 009°41'1020.2
2018-Jun-13 11:30N 42°58' E 009°39'2220.6
2018-Jun-13 10:26N 42°37' E 009°47'1120.7
2018-Jun-13 09:55N 42°27' E 009°51'36419.8
2018-Jun-12 15:34N 38°28' E 015°52'2 8.2
2018-Jun-12 15:22N 38°27' E 015°54'1 0.5
2018-Jun-12 13:23N 38°27' E 015°54'0 0.0
2018-Jun-12 12:53N 38°27' E 015°54'0 0.0
2018-Jun-12 11:47N 38°27' E 015°54'0 0.0
2018-Jun-12 11:23N 38°27' E 015°54'0 0.0
2018-Jun-12 10:59N 38°27' E 015°54'0 0.0
2018-Jun-12 10:29N 38°27' E 015°54'0 0.0
2018-Jun-12 09:47N 38°27' E 015°54'0 0.0
2018-Jun-12 09:29N 38°27' E 015°54'0 0.0
2018-Jun-12 08:59N 38°27' E 015°54'0 0.0
2018-Jun-12 08:29N 38°27' E 015°54'0 0.0
2018-Jun-12 07:53N 38°27' E 015°54'0 0.0
2018-Jun-12 07:29N 38°27' E 015°54'0 0.0
2018-Jun-12 06:59N 38°27' E 015°54'0 0.0
2018-Jun-12 06:23N 38°27' E 015°54'0 0.0
2018-Jun-12 05:35N 38°27' E 015°54'0 0.0
2018-Jun-12 04:11N 38°27' E 015°54'0 0.0
2018-Jun-12 02:05N 38°27' E 015°54'0 0.0
2018-Jun-12 01:59N 38°27' E 015°54'0 0.0
2018-Jun-12 01:11N 38°27' E 015°54'0 0.0
2018-Jun-12 00:59N 38°27' E 015°54'0 0.0
2018-Jun-12 00:29N 38°27' E 015°54'0 0.0
2018-Jun-11 23:59N 38°27' E 015°54'0 0.0
2018-Jun-11 23:23N 38°27' E 015°54'0 0.0
2018-Jun-11 22:59N 38°27' E 015°54'0 0.0
2018-Jun-11 22:29N 38°27' E 015°54'0 0.0
2018-Jun-11 21:58N 38°27' E 015°54'0 0.0
2018-Jun-11 21:29N 38°27' E 015°54'0 0.0
2018-Jun-11 20:59N 38°27' E 015°54'0 0.0
2018-Jun-11 20:28N 38°27' E 015°54'0 0.0
2018-Jun-11 19:53N 38°27' E 015°54'0 0.0
2018-Jun-11 19:29N 38°27' E 015°54'0 0.0
2018-Jun-11 18:58N 38°27' E 015°54'0 0.0
2018-Jun-11 18:29N 38°27' E 015°54'  

Dump ship's entire track history